Time;durP1;ratioP1;P1;durP2;ratioP2;P2;SDS_P1;SDS_P2;PMS_P1;PMS_P2;Temp;Humidity;BMP_temperature;BMP_pressure;BME280_temperature;BME280_humidity;BME280_pressure;Samples;Min_cycle;Max_cycle;Signal;HPM_P1;HPM_P2
2023/07/23 00:00:38;;;;;;;1.42;0.20;;;;;;;15.85;100.00;98830.44;5023496;28;20167;-79
2023/07/23 00:03:04;;;;;;;1.33;0.20;;;;;;;15.85;100.00;98835.78;5032671;28;20071;-78
2023/07/23 00:05:30;;;;;;;1.02;0.22;;;;;;;15.87;100.00;98839.88;5068453;28;20078;-79
2023/07/23 00:07:58;;;;;;;0.85;0.20;;;;;;;15.90;100.00;98830.59;5040538;28;20040;-78
2023/07/23 00:10:25;;;;;;;1.35;0.20;;;;;;;15.88;100.00;98830.00;5033717;28;20388;-80
2023/07/23 00:12:51;;;;;;;1.23;0.25;;;;;;;15.87;100.00;98829.22;5042099;28;20025;-79
2023/07/23 00:15:18;;;;;;;2.80;0.40;;;;;;;15.84;100.00;98834.97;5056767;28;20036;-80
2023/07/23 00:17:43;;;;;;;1.73;0.30;;;;;;;15.84;100.00;98826.97;5070281;28;20082;-80
2023/07/23 00:20:10;;;;;;;3.50;0.30;;;;;;;15.84;100.00;98829.66;5052049;28;20427;-79
2023/07/23 00:22:38;;;;;;;0.65;0.30;;;;;;;15.84;100.00;98823.50;5033999;28;20048;-77
2023/07/23 00:25:05;;;;;;;0.98;0.30;;;;;;;15.84;100.00;98829.66;5050006;28;21080;-80
2023/07/23 00:27:31;;;;;;;2.53;0.32;;;;;;;15.85;100.00;98825.94;5041846;28;20481;-81
2023/07/23 00:29:59;;;;;;;2.42;0.30;;;;;;;15.83;100.00;98827.19;5032641;28;20036;-80
2023/07/23 00:32:25;;;;;;;0.50;0.20;;;;;;;15.80;100.00;98825.78;5033909;28;20067;-80
2023/07/23 00:34:51;;;;;;;1.15;0.20;;;;;;;15.83;100.00;98824.53;5071144;28;20118;-81
2023/07/23 00:37:17;;;;;;;1.15;0.10;;;;;;;15.83;100.00;98817.34;5038307;28;20043;-80
2023/07/23 00:39:43;;;;;;;2.10;0.40;;;;;;;15.82;100.00;98815.72;5051007;28;20464;-81
2023/07/23 00:42:09;;;;;;;2.58;0.10;;;;;;;15.79;100.00;98816.16;5040229;28;20048;-82
2023/07/23 00:44:35;;;;;;;1.05;0.10;;;;;;;15.78;100.00;98811.88;5045982;28;20397;-80
2023/07/23 00:47:04;;;;;;;0.30;0.10;;;;;;;15.78;100.00;98821.72;5051460;28;20120;-81
2023/07/23 00:49:31;;;;;;;0.40;0.20;;;;;;;15.78;100.00;98813.72;5031250;28;20040;-78
2023/07/23 00:51:58;;;;;;;1.27;0.50;;;;;;;15.75;100.00;98805.13;5042977;28;20032;-80
2023/07/23 00:54:24;;;;;;;0.70;0.10;;;;;;;15.72;100.00;98810.88;5038578;28;20090;-81
2023/07/23 00:56:50;;;;;;;4.85;0.90;;;;;;;15.74;100.00;98806.16;5048967;28;20029;-80
2023/07/23 00:59:18;;;;;;;1.23;0.20;;;;;;;15.74;100.00;98810.66;5032944;28;20063;-80
2023/07/23 01:01:43;;;;;;;5.78;0.30;;;;;;;15.69;100.00;98811.31;5014492;28;20040;-79
2023/07/23 01:04:09;;;;;;;3.42;0.30;;;;;;;15.68;100.00;98809.72;5048471;28;20033;-80
2023/07/23 01:06:37;;;;;;;0.47;0.10;;;;;;;15.70;100.00;98812.16;5047693;28;20045;-78
2023/07/23 01:09:04;;;;;;;1.52;0.10;;;;;;;15.66;100.00;98813.59;5044760;28;20068;-78
2023/07/23 01:11:31;;;;;;;1.63;0.20;;;;;;;15.67;100.00;98812.59;5046670;28;20029;-78
2023/07/23 01:13:58;;;;;;;2.50;0.30;;;;;;;15.65;100.00;98810.13;5046064;28;20036;-79
2023/07/23 01:16:27;;;;;;;0.80;0.10;;;;;;;15.63;100.00;98809.53;5037797;28;20036;-80
2023/07/23 01:18:54;;;;;;;1.08;0.13;;;;;;;15.60;100.00;98809.97;5041210;28;20118;-80
2023/07/23 01:21:19;;;;;;;3.53;0.30;;;;;;;15.59;100.00;98803.03;5056378;28;20039;-80
2023/07/23 01:23:45;;;;;;;1.25;0.20;;;;;;;15.59;100.00;98805.69;5041310;28;20029;-77
2023/07/23 01:26:12;;;;;;;3.63;0.20;;;;;;;15.58;100.00;98802.19;5034895;28;20033;-79
2023/07/23 01:28:38;;;;;;;0.70;0.20;;;;;;;15.57;100.00;98805.09;5064831;28;20081;-80
2023/07/23 01:31:04;;;;;;;4.72;0.28;;;;;;;15.56;100.00;98790.94;5026963;28;20028;-79
2023/07/23 01:33:30;;;;;;;1.85;0.30;;;;;;;15.56;100.00;98801.59;5050650;28;20455;-80
2023/07/23 01:35:57;;;;;;;1.88;0.15;;;;;;;15.57;100.00;98799.75;5019348;28;20047;-79
2023/07/23 01:38:23;;;;;;;1.67;0.20;;;;;;;15.56;100.00;98798.94;5034662;28;20039;-78
2023/07/23 01:40:50;;;;;;;1.02;0.20;;;;;;;15.58;100.00;98796.06;5057888;28;20036;-79
2023/07/23 01:43:17;;;;;;;2.25;0.15;;;;;;;15.59;100.00;98795.84;5032319;28;20111;-81
2023/07/23 01:45:44;;;;;;;2.55;0.20;;;;;;;15.61;100.00;98795.63;5016714;28;20062;-76
2023/07/23 01:48:11;;;;;;;2.00;0.20;;;;;;;15.61;100.00;98796.44;5047344;28;20033;-78
2023/07/23 01:50:37;;;;;;;3.35;0.35;;;;;;;15.62;100.00;98803.38;5073098;28;20703;-80
2023/07/23 01:53:03;;;;;;;3.30;0.75;;;;;;;15.60;100.00;98801.97;5037239;28;20036;-79
2023/07/23 01:55:28;;;;;;;4.45;0.57;;;;;;;15.56;100.00;98795.47;5036136;28;20036;-78
2023/07/23 01:57:54;;;;;;;0.98;0.40;;;;;;;15.54;100.00;98800.19;5027670;28;20037;-82
2023/07/23 02:00:20;;;;;;;1.88;0.40;;;;;;;15.53;100.00;98801.25;5052983;28;20099;-81
2023/07/23 02:02:46;;;;;;;1.75;0.50;;;;;;;15.46;100.00;98794.13;5039754;28;20045;-81
2023/07/23 02:05:13;;;;;;;2.88;0.40;;;;;;;15.44;100.00;98793.50;5016121;28;20045;-81
2023/07/23 02:07:40;;;;;;;4.47;0.40;;;;;;;15.40;100.00;98797.63;5036250;28;20473;-79
2023/07/23 02:10:07;;;;;;;4.32;0.30;;;;;;;15.43;100.00;98802.50;5020068;28;20036;-82
2023/07/23 02:12:33;;;;;;;1.08;0.30;;;;;;;15.41;100.00;98795.78;5008013;28;20041;-81
2023/07/23 02:14:59;;;;;;;1.23;0.35;;;;;;;15.35;100.00;98784.97;5029452;28;20029;-81
2023/07/23 02:17:25;;;;;;;1.55;0.20;;;;;;;15.38;100.00;98789.06;5048991;28;20505;-80
2023/07/23 02:19:52;;;;;;;1.10;0.25;;;;;;;15.38;100.00;98792.53;5015533;28;20063;-80
2023/07/23 02:22:18;;;;;;;2.88;0.32;;;;;;;15.33;100.00;98784.38;5032747;28;20091;-81
2023/07/23 02:24:44;;;;;;;1.00;0.30;;;;;;;15.30;100.00;98782.16;5015670;28;20048;-81
2023/07/23 02:27:10;;;;;;;2.15;0.40;;;;;;;15.29;100.00;98783.19;5016051;28;20033;-81
2023/07/23 02:29:36;;;;;;;5.95;0.50;;;;;;;15.29;100.00;98788.50;5017732;28;20128;-82
2023/07/23 02:32:03;;;;;;;1.98;0.40;;;;;;;15.30;100.00;98781.34;5016883;28;20032;-83
2023/07/23 02:34:29;;;;;;;3.25;0.70;;;;;;;15.28;100.00;98783.38;5056627;28;20492;-81
2023/07/23 02:36:54;;;;;;;3.20;0.45;;;;;;;15.25;100.00;98782.81;5036671;28;20033;-81
2023/07/23 02:39:20;;;;;;;0.65;0.30;;;;;;;15.24;100.00;98785.69;5019975;28;20036;-83
2023/07/23 02:41:46;;;;;;;1.20;0.47;;;;;;;15.22;100.00;98783.25;5048641;28;20040;-83
2023/07/23 02:44:12;;;;;;;2.65;0.43;;;;;;;15.22;100.00;98788.56;5035926;28;20033;-84
2023/07/23 02:46:38;;;;;;;0.28;0.28;;;;;;;15.24;100.00;98785.69;5051735;28;20037;-83
2023/07/23 02:49:04;;;;;;;2.35;0.55;;;;;;;15.22;100.00;98783.25;5053773;28;20041;-84
2023/07/23 02:51:30;;;;;;;2.88;0.40;;;;;;;15.22;100.00;98787.75;5020681;28;20029;-83
2023/07/23 02:53:57;;;;;;;1.70;0.50;;;;;;;15.22;100.00;98787.75;5054121;28;20047;-83
2023/07/23 02:56:23;;;;;;;2.90;0.40;;;;;;;15.21;100.00;98796.78;5047041;28;20033;-82
2023/07/23 02:58:49;;;;;;;2.85;0.70;;;;;;;15.19;100.00;98791.66;5035521;28;20031;-80
2023/07/23 03:01:15;;;;;;;4.22;0.80;;;;;;;15.20;100.00;98787.97;5036816;28;20053;-83
2023/07/23 03:03:41;;;;;;;1.02;0.47;;;;;;;15.22;100.00;98787.75;5050805;28;20585;-83
2023/07/23 03:06:08;;;;;;;3.00;0.70;;;;;;;15.23;100.00;98787.53;5037437;28;20049;-81
2023/07/23 03:08:34;;;;;;;2.55;0.43;;;;;;;15.24;100.00;98781.16;5053016;28;20041;-82
2023/07/23 03:11:00;;;;;;;2.88;0.40;;;;;;;15.23;100.00;98787.53;5042814;28;20028;-81
2023/07/23 03:13:26;;;;;;;3.72;0.63;;;;;;;15.27;100.00;98782.59;5019535;28;20798;-82
2023/07/23 03:15:53;;;;;;;3.70;0.57;;;;;;;15.24;100.00;98781.16;5036894;28;20393;-78
2023/07/23 03:18:19;;;;;;;1.27;0.32;;;;;;;15.26;100.00;98783.59;5035948;28;20036;-78
2023/07/23 03:20:45;;;;;;;1.15;0.43;;;;;;;15.25;100.00;98779.31;5039940;28;20083;-82
2023/07/23 03:23:11;;;;;;;1.52;0.30;;;;;;;15.25;100.00;98777.50;5036808;28;20112;-84
2023/07/23 03:25:36;;;;;;;0.43;0.20;;;;;;;15.22;100.00;98785.09;5036386;28;20045;-83
2023/07/23 03:28:02;;;;;;;0.73;0.38;;;;;;;15.24;100.00;98781.16;5053044;28;20103;-82
2023/07/23 03:30:28;;;;;;;3.45;0.60;;;;;;;15.27;100.00;98790.59;5034820;28;20033;-82
2023/07/23 03:32:54;;;;;;;2.95;0.20;;;;;;;15.28;100.00;98781.56;5036169;28;20499;-81
2023/07/23 03:35:22;;;;;;;2.42;0.30;;;;;;;15.30;100.00;98782.16;5042946;28;20041;-82
2023/07/23 03:37:49;;;;;;;1.20;0.30;;;;;;;15.26;100.00;98780.94;5061104;28;20460;-84
2023/07/23 03:40:15;;;;;;;3.88;1.10;;;;;;;15.24;100.00;98788.34;5054693;28;20111;-82
2023/07/23 03:42:41;;;;;;;3.63;0.25;;;;;;;15.25;100.00;98782.00;5026155;28;20033;-83
2023/07/23 03:45:08;;;;;;;0.47;0.25;;;;;;;15.27;100.00;98793.25;5035709;28;20601;-83
2023/07/23 03:47:34;;;;;;;2.45;0.20;;;;;;;15.27;100.00;98790.59;5033990;28;20141;-82
2023/07/23 03:50:00;;;;;;;1.13;0.20;;;;;;;15.27;100.00;98785.25;5030360;28;20037;-81
2023/07/23 03:52:26;;;;;;;0.63;0.30;;;;;;;15.27;100.00;98785.25;5055195;28;20040;-83
2023/07/23 03:54:51;;;;;;;1.08;0.22;;;;;;;15.25;100.00;98784.66;5047928;28;20112;-82
2023/07/23 03:57:17;;;;;;;1.17;0.30;;;;;;;15.27;100.00;98779.09;5048279;28;20049;-81
2023/07/23 03:59:45;;;;;;;1.10;0.40;;;;;;;15.27;100.00;98782.59;5036623;28;20124;-83
2023/07/23 04:02:11;;;;;;;1.95;0.20;;;;;;;15.27;100.00;98793.25;5034297;28;20580;-80
2023/07/23 04:04:38;;;;;;;2.38;0.50;;;;;;;15.24;100.00;98786.50;5037925;28;20086;-81
2023/07/23 04:07:05;;;;;;;2.00;0.30;;;;;;;15.23;100.00;98779.53;5044799;28;20032;-83
2023/07/23 04:09:31;;;;;;;3.15;0.30;;;;;;;15.21;100.00;98788.78;5055216;28;20508;-82
2023/07/23 04:11:58;;;;;;;0.57;0.30;;;;;;;15.20;100.00;98793.28;5019809;28;20036;-81
2023/07/23 04:14:24;;;;;;;2.17;0.40;;;;;;;15.20;100.00;98790.63;5077809;28;20040;-82
2023/07/23 04:16:50;;;;;;;1.88;0.30;;;;;;;15.22;100.00;98803.72;5051197;28;20051;-82
2023/07/23 04:19:17;;;;;;;5.65;0.63;;;;;;;15.20;100.00;98800.44;5071207;28;20579;-83
2023/07/23 04:21:43;;;;;;;2.92;0.43;;;;;;;15.17;100.00;98800.88;5068006;28;20031;-83
2023/07/23 04:24:09;;;;;;;2.45;0.47;;;;;;;15.16;100.00;98802.72;5079762;28;20033;-83
2023/07/23 04:26:35;;;;;;;2.50;0.30;;;;;;;15.13;100.00;98795.16;5070133;28;20028;-81
2023/07/23 04:29:01;;;;;;;4.53;0.47;;;;;;;15.13;100.00;98795.16;5061618;28;20059;-81
2023/07/23 04:31:27;;;;;;;4.28;0.30;;;;;;;15.15;100.00;98794.94;5069536;28;20404;-82
2023/07/23 04:33:53;;;;;;;1.10;0.35;;;;;;;15.13;100.00;98795.16;5031908;28;20079;-81
2023/07/23 04:36:19;;;;;;;1.45;0.30;;;;;;;15.16;100.00;98792.06;5019959;28;20041;-82
2023/07/23 04:38:46;;;;;;;4.13;0.40;;;;;;;15.16;100.00;98799.25;5025690;28;20539;-82
2023/07/23 04:41:12;;;;;;;5.70;0.57;;;;;;;15.15;100.00;98794.94;5066067;28;20028;-82
2023/07/23 04:43:40;;;;;;;1.67;0.45;;;;;;;15.16;100.00;98797.38;5029976;28;20032;-81
2023/07/23 04:46:06;;;;;;;2.97;0.40;;;;;;;15.12;100.00;98789.03;5020176;28;20123;-83
2023/07/23 04:48:36;;;;;;;3.78;0.43;;;;;;;15.12;100.00;98793.53;5071936;28;20115;-81
2023/07/23 04:51:09;;;;;;;0.70;0.30;;;;;;;15.15;100.00;98797.59;5052106;28;20467;-82
2023/07/23 04:53:35;;;;;;;3.70;0.55;;;;;;;15.15;100.00;98805.59;5042666;28;20075;-80
2023/07/23 04:56:03;;;;;;;3.15;0.40;;;;;;;15.18;100.00;98799.88;5044953;28;20037;-82
2023/07/23 04:58:30;;;;;;;3.60;0.20;;;;;;;15.19;100.00;98797.00;5036910;28;20362;-83
2023/07/23 05:00:58;;;;;;;2.67;0.22;;;;;;;15.21;100.00;98802.88;5065623;28;20163;-82
2023/07/23 05:03:24;;;;;;;3.42;0.40;;;;;;;15.22;100.00;98803.72;5054171;28;20536;-82
2023/07/23 05:05:51;;;;;;;1.02;0.20;;;;;;;15.28;100.00;98812.66;5052350;28;20481;-82
2023/07/23 05:08:22;;;;;;;0.90;0.20;;;;;;;15.25;100.00;98803.28;5015971;28;20506;-82
2023/07/23 05:10:49;;;;;;;1.63;0.30;;;;;;;15.23;100.00;98808.00;5060195;28;20107;-79
2023/07/23 05:13:15;;;;;;;1.48;0.30;;;;;;;15.20;100.00;98819.91;5084717;28;20039;-81
2023/07/23 05:15:41;;;;;;;1.52;0.20;;;;;;;15.18;100.00;98808.63;5065768;28;20040;-81
2023/07/23 05:18:08;;;;;;;3.30;0.63;;;;;;;15.18;100.00;98816.63;5056874;28;20036;-83
2023/07/23 05:20:34;;;;;;;4.43;0.30;;;;;;;15.19;100.00;98815.63;5044015;28;20032;-77
2023/07/23 05:23:00;;;;;;;1.33;0.20;;;;;;;15.17;100.00;98823.00;5065243;28;20029;-78
2023/07/23 05:25:25;;;;;;;0.60;0.20;;;;;;;15.17;100.00;98812.34;5065334;28;20036;-81
2023/07/23 05:27:51;;;;;;;1.65;0.25;;;;;;;15.19;100.00;98820.13;5063435;28;20488;-83
2023/07/23 05:30:18;;;;;;;1.42;0.28;;;;;;;15.19;100.00;98822.78;5035258;28;20609;-78
2023/07/23 05:32:44;;;;;;;0.10;0.10;;;;;;;15.20;100.00;98821.72;5066594;28;20060;-78
2023/07/23 05:35:10;;;;;;;4.18;0.35;;;;;;;15.20;100.00;98819.91;5081991;28;20090;-81
2023/07/23 05:37:36;;;;;;;0.90;0.10;;;;;;;15.21;100.00;98818.06;5044864;28;20484;-81
2023/07/23 05:40:05;;;;;;;1.52;0.30;;;;;;;15.24;100.00;98820.28;5065890;28;20060;-83
2023/07/23 05:42:31;;;;;;;0.95;0.17;;;;;;;15.23;100.00;98823.97;5047836;28;20072;-81
2023/07/23 05:44:57;;;;;;;2.38;0.20;;;;;;;15.20;100.00;98822.56;5050449;28;20447;-81
2023/07/23 05:47:23;;;;;;;1.95;0.20;;;;;;;15.23;100.00;98826.63;5036478;28;20101;-78
2023/07/23 05:49:49;;;;;;;0.70;0.10;;;;;;;15.23;100.00;98823.97;5073288;28;20115;-77
2023/07/23 05:52:15;;;;;;;0.75;0.20;;;;;;;15.26;100.00;98828.84;5071088;28;20558;-79
2023/07/23 05:54:41;;;;;;;1.95;0.10;;;;;;;15.26;100.00;98831.50;5067292;28;20433;-77
2023/07/23 05:57:06;;;;;;;0.75;0.20;;;;;;;15.26;100.00;98836.84;5064468;28;20037;-78
2023/07/23 05:59:32;;;;;;;0.10;0.10;;;;;;;15.25;100.00;98832.56;5036501;28;20043;-78
2023/07/23 06:01:58;;;;;;;2.00;0.22;;;;;;;15.28;100.00;98833.97;5069505;28;20049;-77
2023/07/23 06:04:24;;;;;;;1.60;0.30;;;;;;;15.30;100.00;98837.22;5070051;28;20509;-79
2023/07/23 06:06:50;;;;;;;0.73;0.20;;;;;;;15.31;100.00;98833.53;5069677;28;20032;-78
2023/07/23 06:09:17;;;;;;;0.68;0.15;;;;;;;15.31;100.00;98844.19;5071247;28;20051;-78
2023/07/23 06:11:44;;;;;;;0.82;0.40;;;;;;;15.31;100.00;98837.03;5075403;28;20040;-79
2023/07/23 06:14:09;;;;;;;0.75;0.10;;;;;;;15.32;100.00;98841.31;5071804;28;20020;-79
2023/07/23 06:16:35;;;;;;;2.72;0.25;;;;;;;15.32;100.00;98837.84;5006656;28;20403;-77
2023/07/23 06:19:02;;;;;;;0.95;0.15;;;;;;;15.36;100.00;98836.38;5054175;28;20063;-78
2023/07/23 06:21:27;;;;;;;3.72;0.38;;;;;;;15.37;100.00;98830.84;5086835;28;20431;-78
2023/07/23 06:23:53;;;;;;;1.42;0.10;;;;;;;15.39;100.00;98841.25;5036556;28;20082;-78
2023/07/23 06:26:19;;;;;;;1.35;0.10;;;;;;;15.41;100.00;98847.19;5071289;28;20036;-78
2023/07/23 06:28:45;;;;;;;0.35;0.20;;;;;;;15.40;100.00;98842.88;5050464;28;20047;-78
2023/07/23 06:31:10;;;;;;;3.03;0.20;;;;;;;15.40;100.00;98848.22;5070890;28;20037;-78
2023/07/23 06:33:36;;;;;;;3.42;0.20;;;;;;;15.41;100.00;98847.19;5032809;28;20036;-78
2023/07/23 06:36:02;;;;;;;2.53;0.57;;;;;;;15.44;100.00;98852.09;5060783;28;20108;-78
2023/07/23 06:38:28;;;;;;;0.57;0.10;;;;;;;15.45;100.00;98847.59;5070116;28;20033;-77
2023/07/23 06:40:55;;;;;;;1.52;0.20;;;;;;;15.47;100.00;98850.84;5025214;28;20081;-78
2023/07/23 06:43:22;;;;;;;0.20;0.20;;;;;;;15.48;100.00;98858.59;5064270;28;20033;-78
2023/07/23 06:45:50;;;;;;;0.60;0.20;;;;;;;15.48;100.00;98855.94;5018740;28;20070;-79
2023/07/23 06:48:19;;;;;;;0.10;0.10;;;;;;;15.54;100.00;98859.59;5069978;28;20120;-78
2023/07/23 06:50:46;;;;;;;0.32;0.10;;;;;;;15.52;100.00;98860.84;5068783;28;20043;-77
2023/07/23 06:53:13;;;;;;;3.20;0.73;;;;;;;15.46;100.00;98852.69;5061459;28;20024;-77
2023/07/23 06:56:04;;;;;;;2.78;0.20;;;;;;;15.54;100.00;98864.94;5060652;28;20040;-78
2023/07/23 06:58:33;;;;;;;0.25;0.15;;;;;;;15.52;100.00;98861.66;5090517;28;20109;-77
2023/07/23 07:00:59;;;;;;;0.73;0.10;;;;;;;15.51;100.00;98870.69;5076180;28;20043;-77
2023/07/23 07:03:25;;;;;;;0.65;0.10;;;;;;;15.52;100.00;98866.97;5069171;28;20032;-77
2023/07/23 07:05:51;;;;;;;1.65;0.20;;;;;;;15.56;100.00;98873.50;5051855;28;20365;-78
2023/07/23 07:08:17;;;;;;;1.05;0.10;;;;;;;15.60;100.00;98873.88;5068569;28;20041;-77
2023/07/23 07:10:43;;;;;;;1.17;0.05;;;;;;;15.66;100.00;98877.53;5067652;28;20036;-77
2023/07/23 07:13:09;;;;;;;0.52;0.10;;;;;;;15.68;100.00;98884.28;5069081;28;20036;-78
2023/07/23 07:15:35;;;;;;;0.20;0.10;;;;;;;15.71;100.00;98886.50;5069563;28;20120;-77
2023/07/23 07:18:01;;;;;;;0.80;0.03;;;;;;;15.74;100.00;98886.06;5051327;28;20485;-77
2023/07/23 07:20:27;;;;;;;1.30;0.10;;;;;;;15.74;100.00;98891.41;5077775;28;20082;-81
2023/07/23 07:22:52;;;;;;;0.98;0.10;;;;;;;15.72;100.00;98881.97;5071354;28;20025;-81
2023/07/23 07:25:18;;;;;;;3.00;0.10;;;;;;;15.76;100.00;98891.19;5041151;28;20063;-82
2023/07/23 07:27:44;;;;;;;0.10;0.03;;;;;;;15.78;100.00;98889.13;5037575;28;20036;-83
2023/07/23 07:30:10;;;;;;;1.00;0.10;;;;;;;15.83;100.00;98883.16;5038444;28;20043;-83
2023/07/23 07:32:35;;;;;;;0.38;0.10;;;;;;;15.87;100.00;98898.47;5071299;28;20047;-81
2023/07/23 07:35:02;;;;;;;2.72;0.10;;;;;;;15.92;100.00;98895.16;5068509;28;20039;-79
2023/07/23 07:37:27;;;;;;;0.65;0.10;;;;;;;15.91;100.00;98903.38;5043293;28;20029;-81
2023/07/23 07:39:53;;;;;;;0.05;0.03;;;;;;;15.96;100.00;98901.66;5061954;28;20090;-82
2023/07/23 07:42:19;;;;;;;0.57;0.20;;;;;;;16.01;100.00;98893.06;5064753;28;20044;-82
2023/07/23 07:44:45;;;;;;;0.05;0.00;;;;;;;16.01;100.00;98908.25;5071414;28;20110;-82
2023/07/23 07:47:12;;;;;;;1.35;0.10;;;;;;;16.01;100.00;98905.59;5042002;28;20059;-81
2023/07/23 07:49:38;;;;;;;0.30;0.00;;;;;;;16.01;100.00;98901.03;5051680;28;20032;-81
2023/07/23 07:52:05;;;;;;;0.38;0.00;;;;;;;16.05;100.00;98896.09;5051057;28;20036;-81
2023/07/23 07:54:30;;;;;;;0.10;0.00;;;;;;;16.06;100.00;98892.41;5053635;28;20473;-81
2023/07/23 07:56:56;;;;;;;0.10;0.10;;;;;;;16.09;100.00;98906.09;5064377;28;20058;-81
2023/07/23 07:59:23;;;;;;;1.20;0.10;;;;;;;16.09;100.00;98906.09;5036673;28;20434;-81
2023/07/23 08:01:49;;;;;;;0.45;0.00;;;;;;;16.11;100.00;98896.06;5081094;28;20123;-81
2023/07/23 08:04:15;;;;;;;0.25;0.10;;;;;;;16.14;100.00;98904.63;5068711;28;20124;-81
2023/07/23 08:06:41;;;;;;;0.20;0.00;;;;;;;16.16;100.00;98905.22;5035127;28;20036;-81
2023/07/23 08:09:09;;;;;;;1.38;0.10;;;;;;;16.19;100.00;98907.44;5067030;28;20123;-81
2023/07/23 08:11:36;;;;;;;0.43;0.10;;;;;;;16.21;100.00;98913.38;5079668;28;20028;-81
2023/07/23 08:14:06;;;;;;;1.05;0.00;;;;;;;16.25;100.00;98909.25;5044337;28;20035;-81
2023/07/23 08:16:33;;;;;;;0.40;0.00;;;;;;;16.27;100.00;98909.84;5053581;28;20115;-81
2023/07/23 08:18:59;;;;;;;0.00;0.00;;;;;;;16.26;100.00;98910.06;5071425;28;20028;-81
2023/07/23 08:21:25;;;;;;;0.10;0.10;;;;;;;16.30;100.00;98914.72;5066168;28;20489;-80
2023/07/23 08:23:51;;;;;;;1.92;0.17;;;;;;;16.31;100.00;98912.91;5065091;28;21099;-80
2023/07/23 08:26:20;;;;;;;0.47;0.17;;;;;;;16.38;100.00;98916.28;5082604;28;20047;-79
2023/07/23 08:28:51;;;;;;;0.10;0.10;;;;;;;16.39;100.00;98917.13;5049850;28;20484;-81
2023/07/23 08:31:18;;;;;;;0.00;0.00;;;;;;;16.35;100.00;98922.91;5048884;28;20068;-80
2023/07/23 08:33:46;;;;;;;0.00;0.00;;;;;;;16.32;100.00;98920.66;5068955;28;20366;-80
2023/07/23 08:36:13;;;;;;;0.38;0.10;;;;;;;16.32;100.00;98933.19;5073157;28;20396;-80
2023/07/23 08:38:39;;;;;;;0.30;0.00;;;;;;;16.35;100.00;98930.06;5062948;28;20144;-81
2023/07/23 08:41:21;;;;;;;0.20;0.10;;;;;;;16.43;100.00;98936.97;5069783;28;20032;-80
2023/07/23 08:44:16;;;;;;;0.05;0.05;;;;;;;16.42;100.00;98941.47;5063581;28;20034;-81
2023/07/23 08:46:46;;;;;;;0.63;0.13;;;;;;;16.47;100.00;98940.81;5053530;28;20062;-82
2023/07/23 08:49:12;;;;;;;0.30;0.20;;;;;;;16.51;100.00;98944.69;5052902;28;20093;-79
2023/07/23 08:51:48;;;;;;;0.30;0.10;;;;;;;16.65;100.00;98941.88;5069495;28;20029;-80
2023/07/23 08:54:16;;;;;;;3.90;0.10;;;;;;;16.68;100.00;98944.09;5044769;28;20509;-81
2023/07/23 08:56:43;;;;;;;0.10;0.00;;;;;;;16.69;100.00;98948.41;5085572;28;20477;-80
2023/07/23 08:59:09;;;;;;;2.45;0.10;;;;;;;16.74;100.00;98946.69;5046241;28;20436;-81
2023/07/23 09:01:41;;;;;;;0.10;0.10;;;;;;;16.85;100.00;98952.34;5043263;28;20562;-80
2023/07/23 09:04:13;;;;;;;0.10;0.10;;;;;;;16.91;100.00;98956.78;5068975;28;20171;-80
2023/07/23 09:06:44;;;;;;;0.98;0.00;;;;;;;16.96;100.00;98956.13;5071141;28;20426;-81
2023/07/23 09:09:12;;;;;;;0.00;0.00;;;;;;;17.02;100.00;98955.22;5067093;28;20401;-77
2023/07/23 09:11:38;;;;;;;1.33;0.10;;;;;;;17.06;100.00;98955.56;5057208;28;20496;-82
2023/07/23 09:14:10;;;;;;;0.10;0.08;;;;;;;17.17;100.00;98956.72;5053463;28;20067;-81
2023/07/23 09:16:45;;;;;;;2.83;0.08;;;;;;;17.21;100.00;98957.88;5022963;28;20056;-81
2023/07/23 09:19:13;;;;;;;0.15;0.00;;;;;;;17.16;100.00;98960.41;5070569;28;20694;-81
2023/07/23 09:21:44;;;;;;;0.20;0.00;;;;;;;17.14;100.00;98968.66;5068900;28;20040;-82
2023/07/23 09:24:15;;;;;;;0.40;0.00;;;;;;;17.16;100.00;98963.91;5071487;28;20028;-82
2023/07/23 09:26:41;;;;;;;0.03;0.03;;;;;;;17.19;100.00;98967.97;5045406;28;20162;-83
2023/07/23 09:29:10;;;;;;;0.03;0.00;;;;;;;17.31;100.00;98973.38;5027679;28;20115;-80
2023/07/23 09:31:41;;;;;;;0.10;0.10;;;;;;;17.42;100.00;98977.13;5037148;28;20030;-82
2023/07/23 09:34:07;;;;;;;0.32;0.10;;;;;;;17.57;100.00;98977.53;5043515;28;20071;-82
2023/07/23 09:36:35;;;;;;;0.20;0.10;;;;;;;17.68;100.00;98978.63;5052981;28;20029;-82
2023/07/23 09:39:03;;;;;;;1.70;0.10;;;;;;;17.71;100.00;98982.72;5050269;28;20119;-83
2023/07/23 09:41:34;;;;;;;0.00;0.00;;;;;;;17.80;100.00;98977.84;5040039;28;20036;-82
2023/07/23 09:44:06;;;;;;;1.75;0.10;;;;;;;17.85;100.00;98983.31;5046173;28;20044;-82
2023/07/23 09:46:32;;;;;;;0.17;0.00;;;;;;;17.86;100.00;98987.63;5035251;28;20051;-81
2023/07/23 09:48:58;;;;;;;0.10;0.10;;;;;;;17.88;100.00;98982.03;5023406;28;20040;-82
2023/07/23 09:51:24;;;;;;;0.10;0.10;;;;;;;17.90;100.00;98978.09;5059314;28;20033;-81
2023/07/23 09:53:50;;;;;;;1.05;0.20;;;;;;;17.93;100.00;98992.88;5066992;28;20579;-81
2023/07/23 09:56:17;;;;;;;0.45;0.20;;;;;;;17.97;100.00;98986.84;5038335;28;20111;-82
2023/07/23 09:58:46;;;;;;;0.10;0.10;;;;;;;17.99;100.00;98989.28;5022926;28;20036;-82
2023/07/23 10:01:14;;;;;;;1.95;0.22;;;;;;;18.04;100.00;98985.91;5061285;28;20045;-81
2023/07/23 10:03:40;;;;;;;0.25;0.10;;;;;;;18.15;100.00;98985.16;5027849;28;20035;-81
2023/07/23 10:06:11;;;;;;;0.10;0.10;;;;;;;18.24;100.00;98996.31;5013736;28;20045;-81
2023/07/23 10:08:42;;;;;;;0.40;0.10;;;;;;;18.30;100.00;98983.91;4996595;28;20111;-81
2023/07/23 10:11:12;;;;;;;0.30;0.20;;;;;;;18.31;100.00;98983.66;5030739;28;20033;-81
2023/07/23 10:13:40;;;;;;;0.08;0.08;;;;;;;18.23;100.00;98994.69;5012641;28;20033;-81
2023/07/23 10:16:10;;;;;;;2.20;0.20;;;;;;;18.29;100.00;98998.28;5013996;28;20054;-82
2023/07/23 10:18:40;;;;;;;0.47;0.17;;;;;;;18.32;100.00;98997.81;4995601;28;20045;-81
2023/07/23 10:21:08;;;;;;;0.15;0.10;;;;;;;18.34;100.00;98995.75;5009789;28;20116;-81
2023/07/23 10:23:35;;;;;;;0.10;0.10;;;;;;;18.34;100.00;98987.72;5011883;28;20110;-81
2023/07/23 10:26:20;;;;;;;1.02;0.20;;;;;;;18.46;100.00;98999.22;4999766;28;20090;-81
2023/07/23 10:28:48;;;;;;;0.17;0.17;;;;;;;18.56;100.00;99001.34;5010061;28;20057;-80
2023/07/23 10:31:25;;;;;;;0.32;0.22;;;;;;;18.68;100.00;99000.53;5008789;28;20033;-81
2023/07/23 10:33:51;;;;;;;1.60;0.68;;;;;;;18.68;100.00;99004.00;5048777;28;20032;-81
2023/07/23 10:36:19;;;;;;;0.22;0.10;;;;;;;18.75;100.00;98998.53;5034665;28;20035;-82
2023/07/23 10:38:46;;;;;;;0.55;0.20;;;;;;;18.86;100.00;99002.22;5013715;28;20031;-81
2023/07/23 10:41:12;;;;;;;0.20;0.20;;;;;;;18.93;100.00;99005.63;5048339;28;20031;-80
2023/07/23 10:43:42;;;;;;;0.75;0.10;;;;;;;19.00;100.00;99010.03;5014184;28;20025;-76
2023/07/23 10:46:19;;;;;;;0.20;0.20;;;;;;;18.99;100.00;99008.38;5028705;28;20045;-77
2023/07/23 10:48:50;;;;;;;0.68;0.20;;;;;;;18.97;100.00;99014.78;5028887;28;20037;-77
2023/07/23 10:51:20;;;;;;;0.70;0.25;;;;;;;18.92;100.00;99021.91;5034372;28;20865;-76
2023/07/23 10:53:55;;;;;;;0.20;0.10;;;;;;;18.80;100.00;99030.75;5033546;28;21709;-75
2023/07/23 10:56:49;;;;;;;5.25;0.30;;;;;;;18.36;100.00;99028.44;5017331;28;20051;-77
2023/07/23 10:59:21;;;;;;;7.38;0.57;;;;;;;17.56;100.00;99010.66;5032075;28;20526;-76
2023/07/23 11:01:51;;;;;;;5.07;0.20;;;;;;;16.93;100.00;99044.63;5055233;28;20048;-76
2023/07/23 11:04:26;;;;;;;0.47;0.20;;;;;;;16.41;100.00;99043.03;5052074;28;20124;-78
2023/07/23 11:07:04;;;;;;;0.60;0.10;;;;;;;16.24;100.00;99052.38;5070025;28;20542;-77
2023/07/23 11:09:36;;;;;;;0.73;0.13;;;;;;;16.21;100.00;99055.47;5049660;28;20041;-77
2023/07/23 11:12:05;;;;;;;1.23;0.40;;;;;;;16.16;100.00;99055.31;5081971;28;20564;-78
2023/07/23 11:14:32;;;;;;;2.55;0.30;;;;;;;16.05;100.00;99062.16;5060335;28;20035;-77
2023/07/23 11:17:03;;;;;;;1.63;0.30;;;;;;;16.06;100.00;99069.13;5055086;28;20036;-78
2023/07/23 11:19:31;;;;;;;0.43;0.20;;;;;;;16.13;100.00;99071.75;5078095;28;20400;-76
2023/07/23 11:22:00;;;;;;;1.27;0.20;;;;;;;16.16;100.00;99075.81;5065843;28;20119;-78
2023/07/23 11:24:27;;;;;;;0.55;0.20;;;;;;;16.03;100.00;99080.22;5067011;28;20101;-76